sensor_id;sensor_type;location;lat;lon;timestamp;P1;durP1;ratioP1;P2;durP2;ratioP2
64832;SDS011;51290;45.060;38.948;2023-10-31T00:01:51;62.70;;;37.13;;
64832;SDS011;51290;45.060;38.948;2023-10-31T00:04:17;60.72;;;38.53;;
64832;SDS011;51290;45.060;38.948;2023-10-31T00:06:43;56.95;;;39.70;;
64832;SDS011;51290;45.060;38.948;2023-10-31T00:09:09;65.68;;;39.50;;
64832;SDS011;51290;45.060;38.948;2023-10-31T00:11:39;55.75;;;39.22;;
64832;SDS011;51290;45.060;38.948;2023-10-31T00:14:06;59.50;;;38.72;;
64832;SDS011;51290;45.060;38.948;2023-10-31T00:16:33;56.08;;;39.53;;
64832;SDS011;51290;45.060;38.948;2023-10-31T00:18:59;66.80;;;41.90;;
64832;SDS011;51290;45.060;38.948;2023-10-31T00:21:25;68.10;;;42.95;;
64832;SDS011;51290;45.060;38.948;2023-10-31T00:23:51;62.40;;;44.35;;
64832;SDS011;51290;45.060;38.948;2023-10-31T00:26:17;63.42;;;42.25;;
64832;SDS011;51290;45.060;38.948;2023-10-31T00:28:49;59.33;;;42.35;;
64832;SDS011;51290;45.060;38.948;2023-10-31T00:31:15;69.93;;;41.10;;
64832;SDS011;51290;45.060;38.948;2023-10-31T00:33:42;73.95;;;45.13;;
64832;SDS011;51290;45.060;38.948;2023-10-31T00:36:08;67.82;;;43.25;;
64832;SDS011;51290;45.060;38.948;2023-10-31T00:38:34;70.82;;;44.70;;
64832;SDS011;51290;45.060;38.948;2023-10-31T00:41:00;65.60;;;42.03;;
64832;SDS011;51290;45.060;38.948;2023-10-31T00:43:26;62.72;;;43.67;;
64832;SDS011;51290;45.060;38.948;2023-10-31T00:45:52;60.00;;;41.90;;
64832;SDS011;51290;45.060;38.948;2023-10-31T00:48:19;68.63;;;42.13;;
64832;SDS011;51290;45.060;38.948;2023-10-31T00:50:45;60.78;;;42.00;;
64832;SDS011;51290;45.060;38.948;2023-10-31T00:53:11;65.25;;;43.42;;
64832;SDS011;51290;45.060;38.948;2023-10-31T00:55:38;66.75;;;43.60;;
64832;SDS011;51290;45.060;38.948;2023-10-31T00:58:04;79.78;;;41.40;;
64832;SDS011;51290;45.060;38.948;2023-10-31T01:00:30;59.83;;;41.80;;
64832;SDS011;51290;45.060;38.948;2023-10-31T01:02:57;59.33;;;38.28;;
64832;SDS011;51290;45.060;38.948;2023-10-31T01:05:23;65.63;;;40.05;;
64832;SDS011;51290;45.060;38.948;2023-10-31T01:07:49;65.03;;;39.78;;
64832;SDS011;51290;45.060;38.948;2023-10-31T01:10:15;69.90;;;42.10;;
64832;SDS011;51290;45.060;38.948;2023-10-31T01:12:41;58.53;;;41.13;;
64832;SDS011;51290;45.060;38.948;2023-10-31T01:15:06;61.28;;;39.28;;
64832;SDS011;51290;45.060;38.948;2023-10-31T01:17:33;62.92;;;39.10;;
64832;SDS011;51290;45.060;38.948;2023-10-31T01:19:59;53.53;;;37.63;;
64832;SDS011;51290;45.060;38.948;2023-10-31T01:22:25;60.70;;;36.30;;
64832;SDS011;51290;45.060;38.948;2023-10-31T01:24:51;53.58;;;37.03;;
64832;SDS011;51290;45.060;38.948;2023-10-31T01:27:17;65.38;;;37.80;;
64832;SDS011;51290;45.060;38.948;2023-10-31T01:29:44;61.03;;;37.83;;
64832;SDS011;51290;45.060;38.948;2023-10-31T01:32:10;66.50;;;38.55;;
64832;SDS011;51290;45.060;38.948;2023-10-31T01:34:35;65.32;;;37.40;;
64832;SDS011;51290;45.060;38.948;2023-10-31T01:37:01;53.45;;;36.03;;
64832;SDS011;51290;45.060;38.948;2023-10-31T01:39:27;66.30;;;35.70;;
64832;SDS011;51290;45.060;38.948;2023-10-31T01:41:53;58.13;;;35.88;;
64832;SDS011;51290;45.060;38.948;2023-10-31T01:44:20;53.55;;;37.15;;
64832;SDS011;51290;45.060;38.948;2023-10-31T01:46:46;63.00;;;37.05;;
64832;SDS011;51290;45.060;38.948;2023-10-31T01:49:12;58.85;;;36.38;;
64832;SDS011;51290;45.060;38.948;2023-10-31T01:51:42;55.08;;;35.30;;
64832;SDS011;51290;45.060;38.948;2023-10-31T01:54:10;62.78;;;35.50;;
64832;SDS011;51290;45.060;38.948;2023-10-31T01:56:36;60.08;;;36.40;;
64832;SDS011;51290;45.060;38.948;2023-10-31T01:59:04;56.25;;;35.70;;
64832;SDS011;51290;45.060;38.948;2023-10-31T02:01:37;57.00;;;35.67;;
64832;SDS011;51290;45.060;38.948;2023-10-31T02:04:05;55.53;;;36.38;;
64832;SDS011;51290;45.060;38.948;2023-10-31T02:06:31;49.88;;;34.67;;
64832;SDS011;51290;45.060;38.948;2023-10-31T02:08:57;50.75;;;35.28;;
64832;SDS011;51290;45.060;38.948;2023-10-31T02:11:23;48.22;;;34.58;;
64832;SDS011;51290;45.060;38.948;2023-10-31T02:13:49;56.00;;;34.67;;
64832;SDS011;51290;45.060;38.948;2023-10-31T02:16:15;60.90;;;36.13;;
64832;SDS011;51290;45.060;38.948;2023-10-31T02:18:42;60.13;;;34.65;;
64832;SDS011;51290;45.060;38.948;2023-10-31T02:21:08;60.92;;;35.55;;
64832;SDS011;51290;45.060;38.948;2023-10-31T02:23:34;56.15;;;34.03;;
64832;SDS011;51290;45.060;38.948;2023-10-31T02:26:00;58.03;;;34.90;;
64832;SDS011;51290;45.060;38.948;2023-10-31T02:28:26;49.88;;;32.90;;
64832;SDS011;51290;45.060;38.948;2023-10-31T02:30:53;51.80;;;32.45;;
64832;SDS011;51290;45.060;38.948;2023-10-31T02:33:22;48.40;;;32.88;;
64832;SDS011;51290;45.060;38.948;2023-10-31T02:35:48;53.88;;;33.05;;
64832;SDS011;51290;45.060;38.948;2023-10-31T02:38:14;56.60;;;33.60;;
64832;SDS011;51290;45.060;38.948;2023-10-31T02:40:40;47.88;;;32.45;;
64832;SDS011;51290;45.060;38.948;2023-10-31T02:43:06;46.55;;;31.08;;
64832;SDS011;51290;45.060;38.948;2023-10-31T02:45:32;48.85;;;30.85;;
64832;SDS011;51290;45.060;38.948;2023-10-31T02:47:59;47.00;;;29.73;;
64832;SDS011;51290;45.060;38.948;2023-10-31T02:50:25;46.75;;;28.77;;
64832;SDS011;51290;45.060;38.948;2023-10-31T02:52:51;39.40;;;26.17;;
64832;SDS011;51290;45.060;38.948;2023-10-31T02:55:17;40.03;;;27.30;;
64832;SDS011;51290;45.060;38.948;2023-10-31T02:57:43;35.13;;;25.42;;
64832;SDS011;51290;45.060;38.948;2023-10-31T03:00:09;37.15;;;25.85;;
64832;SDS011;51290;45.060;38.948;2023-10-31T03:02:35;40.50;;;24.75;;
64832;SDS011;51290;45.060;38.948;2023-10-31T03:05:01;39.50;;;23.88;;
64832;SDS011;51290;45.060;38.948;2023-10-31T03:07:27;37.80;;;22.60;;
64832;SDS011;51290;45.060;38.948;2023-10-31T03:09:53;39.70;;;24.02;;
64832;SDS011;51290;45.060;38.948;2023-10-31T03:12:19;35.67;;;24.13;;
64832;SDS011;51290;45.060;38.948;2023-10-31T03:14:45;38.08;;;24.70;;
64832;SDS011;51290;45.060;38.948;2023-10-31T03:17:11;32.97;;;24.33;;
64832;SDS011;51290;45.060;38.948;2023-10-31T03:19:37;32.38;;;24.13;;
64832;SDS011;51290;45.060;38.948;2023-10-31T03:22:03;30.83;;;22.35;;
64832;SDS011;51290;45.060;38.948;2023-10-31T03:24:29;32.00;;;22.52;;
64832;SDS011;51290;45.060;38.948;2023-10-31T03:26:57;32.72;;;21.95;;
64832;SDS011;51290;45.060;38.948;2023-10-31T03:29:24;45.17;;;24.10;;
64832;SDS011;51290;45.060;38.948;2023-10-31T03:31:50;38.30;;;24.13;;
64832;SDS011;51290;45.060;38.948;2023-10-31T03:34:16;42.40;;;23.90;;
64832;SDS011;51290;45.060;38.948;2023-10-31T03:36:42;38.53;;;24.70;;
64832;SDS011;51290;45.060;38.948;2023-10-31T03:39:08;46.47;;;24.00;;
64832;SDS011;51290;45.060;38.948;2023-10-31T03:41:34;29.27;;;22.65;;
64832;SDS011;51290;45.060;38.948;2023-10-31T03:43:59;34.45;;;22.92;;
64832;SDS011;51290;45.060;38.948;2023-10-31T03:46:25;40.38;;;22.33;;
64832;SDS011;51290;45.060;38.948;2023-10-31T03:48:52;33.13;;;21.75;;
64832;SDS011;51290;45.060;38.948;2023-10-31T03:51:18;31.98;;;21.13;;
64832;SDS011;51290;45.060;38.948;2023-10-31T03:53:44;35.08;;;22.27;;
64832;SDS011;51290;45.060;38.948;2023-10-31T03:56:10;31.33;;;21.45;;
64832;SDS011;51290;45.060;38.948;2023-10-31T03:58:36;31.23;;;21.20;;
64832;SDS011;51290;45.060;38.948;2023-10-31T04:01:02;29.65;;;21.05;;
64832;SDS011;51290;45.060;38.948;2023-10-31T04:03:28;28.60;;;22.63;;
64832;SDS011;51290;45.060;38.948;2023-10-31T04:05:54;29.67;;;20.10;;
64832;SDS011;51290;45.060;38.948;2023-10-31T04:08:20;30.48;;;20.75;;
64832;SDS011;51290;45.060;38.948;2023-10-31T04:10:46;27.55;;;20.02;;
64832;SDS011;51290;45.060;38.948;2023-10-31T04:13:12;31.38;;;17.92;;
64832;SDS011;51290;45.060;38.948;2023-10-31T04:15:38;27.30;;;17.65;;
64832;SDS011;51290;45.060;38.948;2023-10-31T04:18:04;28.65;;;17.08;;
64832;SDS011;51290;45.060;38.948;2023-10-31T04:20:30;23.52;;;15.95;;
64832;SDS011;51290;45.060;38.948;2023-10-31T04:22:56;33.35;;;17.58;;
64832;SDS011;51290;45.060;38.948;2023-10-31T04:25:22;35.10;;;18.42;;
64832;SDS011;51290;45.060;38.948;2023-10-31T04:27:48;28.85;;;17.23;;
64832;SDS011;51290;45.060;38.948;2023-10-31T04:30:14;22.83;;;17.25;;
64832;SDS011;51290;45.060;38.948;2023-10-31T04:32:40;30.60;;;17.65;;
64832;SDS011;51290;45.060;38.948;2023-10-31T04:35:06;29.42;;;17.55;;
64832;SDS011;51290;45.060;38.948;2023-10-31T04:37:32;40.70;;;19.23;;
64832;SDS011;51290;45.060;38.948;2023-10-31T04:39:59;27.02;;;16.83;;
64832;SDS011;51290;45.060;38.948;2023-10-31T04:42:25;28.63;;;17.13;;
64832;SDS011;51290;45.060;38.948;2023-10-31T04:44:51;25.00;;;16.10;;
64832;SDS011;51290;45.060;38.948;2023-10-31T04:47:17;23.95;;;16.23;;
64832;SDS011;51290;45.060;38.948;2023-10-31T04:49:42;27.30;;;15.93;;
64832;SDS011;51290;45.060;38.948;2023-10-31T04:52:08;33.40;;;16.52;;
64832;SDS011;51290;45.060;38.948;2023-10-31T04:54:34;24.52;;;16.70;;
64832;SDS011;51290;45.060;38.948;2023-10-31T04:57:00;26.67;;;17.08;;
64832;SDS011;51290;45.060;38.948;2023-10-31T04:59:26;30.92;;;17.85;;
64832;SDS011;51290;45.060;38.948;2023-10-31T05:01:52;25.00;;;16.83;;
64832;SDS011;51290;45.060;38.948;2023-10-31T05:04:19;24.05;;;16.15;;
64832;SDS011;51290;45.060;38.948;2023-10-31T05:06:45;24.05;;;15.48;;
64832;SDS011;51290;45.060;38.948;2023-10-31T05:09:13;26.30;;;15.82;;
64832;SDS011;51290;45.060;38.948;2023-10-31T05:11:39;27.33;;;16.27;;
64832;SDS011;51290;45.060;38.948;2023-10-31T05:14:07;28.45;;;15.90;;
64832;SDS011;51290;45.060;38.948;2023-10-31T05:16:39;28.70;;;16.00;;
64832;SDS011;51290;45.060;38.948;2023-10-31T05:19:08;32.25;;;17.48;;
64832;SDS011;51290;45.060;38.948;2023-10-31T05:21:35;36.42;;;16.67;;
64832;SDS011;51290;45.060;38.948;2023-10-31T05:24:01;22.05;;;15.85;;
64832;SDS011;51290;45.060;38.948;2023-10-31T05:26:27;23.23;;;16.55;;
64832;SDS011;51290;45.060;38.948;2023-10-31T05:28:55;32.08;;;17.50;;
64832;SDS011;51290;45.060;38.948;2023-10-31T05:31:23;27.92;;;17.50;;
64832;SDS011;51290;45.060;38.948;2023-10-31T05:33:50;29.48;;;17.98;;
64832;SDS011;51290;45.060;38.948;2023-10-31T05:36:21;29.35;;;17.50;;
64832;SDS011;51290;45.060;38.948;2023-10-31T05:38:47;31.15;;;17.33;;
64832;SDS011;51290;45.060;38.948;2023-10-31T05:41:14;29.23;;;18.27;;
64832;SDS011;51290;45.060;38.948;2023-10-31T05:43:40;30.95;;;18.77;;
64832;SDS011;51290;45.060;38.948;2023-10-31T05:46:06;25.20;;;17.52;;
64832;SDS011;51290;45.060;38.948;2023-10-31T05:48:38;46.30;;;18.55;;
64832;SDS011;51290;45.060;38.948;2023-10-31T05:51:10;30.02;;;19.70;;
64832;SDS011;51290;45.060;38.948;2023-10-31T05:53:41;30.67;;;19.35;;
64832;SDS011;51290;45.060;38.948;2023-10-31T05:56:08;32.67;;;18.42;;
64832;SDS011;51290;45.060;38.948;2023-10-31T05:58:37;25.58;;;18.40;;
64832;SDS011;51290;45.060;38.948;2023-10-31T06:01:03;32.78;;;20.45;;
64832;SDS011;51290;45.060;38.948;2023-10-31T06:03:30;28.02;;;18.25;;
64832;SDS011;51290;45.060;38.948;2023-10-31T06:05:56;32.33;;;19.40;;
64832;SDS011;51290;45.060;38.948;2023-10-31T06:08:22;39.33;;;28.05;;
64832;SDS011;51290;45.060;38.948;2023-10-31T06:10:50;28.35;;;20.05;;
64832;SDS011;51290;45.060;38.948;2023-10-31T06:13:16;38.60;;;18.75;;
64832;SDS011;51290;45.060;38.948;2023-10-31T06:15:42;34.75;;;19.45;;
64832;SDS011;51290;45.060;38.948;2023-10-31T06:18:09;31.42;;;19.27;;
64832;SDS011;51290;45.060;38.948;2023-10-31T06:20:35;30.52;;;18.98;;
64832;SDS011;51290;45.060;38.948;2023-10-31T06:23:01;28.85;;;17.88;;
64832;SDS011;51290;45.060;38.948;2023-10-31T06:25:30;30.67;;;18.70;;
64832;SDS011;51290;45.060;38.948;2023-10-31T06:27:57;29.80;;;18.92;;
64832;SDS011;51290;45.060;38.948;2023-10-31T06:30:23;32.83;;;19.83;;
64832;SDS011;51290;45.060;38.948;2023-10-31T06:32:53;25.10;;;18.23;;
64832;SDS011;51290;45.060;38.948;2023-10-31T06:35:19;35.72;;;18.98;;
64832;SDS011;51290;45.060;38.948;2023-10-31T06:37:45;27.75;;;18.85;;
64832;SDS011;51290;45.060;38.948;2023-10-31T06:40:11;44.42;;;18.70;;
64832;SDS011;51290;45.060;38.948;2023-10-31T06:42:37;32.53;;;19.30;;
64832;SDS011;51290;45.060;38.948;2023-10-31T06:45:03;24.70;;;18.95;;
64832;SDS011;51290;45.060;38.948;2023-10-31T06:47:30;27.38;;;18.92;;
64832;SDS011;51290;45.060;38.948;2023-10-31T06:49:56;29.23;;;18.73;;
64832;SDS011;51290;45.060;38.948;2023-10-31T06:52:22;36.22;;;18.55;;
64832;SDS011;51290;45.060;38.948;2023-10-31T06:54:48;39.65;;;21.55;;
64832;SDS011;51290;45.060;38.948;2023-10-31T06:57:14;29.88;;;19.30;;
64832;SDS011;51290;45.060;38.948;2023-10-31T06:59:41;28.70;;;20.45;;
64832;SDS011;51290;45.060;38.948;2023-10-31T07:02:07;28.42;;;19.88;;
64832;SDS011;51290;45.060;38.948;2023-10-31T07:04:34;36.03;;;20.83;;
64832;SDS011;51290;45.060;38.948;2023-10-31T07:07:00;50.95;;;22.10;;
64832;SDS011;51290;45.060;38.948;2023-10-31T07:09:26;31.27;;;20.92;;
64832;SDS011;51290;45.060;38.948;2023-10-31T07:11:52;35.13;;;22.35;;
64832;SDS011;51290;45.060;38.948;2023-10-31T07:14:18;34.40;;;22.95;;
64832;SDS011;51290;45.060;38.948;2023-10-31T07:16:44;46.05;;;23.00;;
64832;SDS011;51290;45.060;38.948;2023-10-31T07:19:11;36.42;;;23.42;;
64832;SDS011;51290;45.060;38.948;2023-10-31T07:21:37;35.15;;;22.88;;
64832;SDS011;51290;45.060;38.948;2023-10-31T07:24:03;32.85;;;23.25;;
64832;SDS011;51290;45.060;38.948;2023-10-31T07:26:29;30.42;;;23.25;;
64832;SDS011;51290;45.060;38.948;2023-10-31T07:28:55;28.90;;;22.65;;
64832;SDS011;51290;45.060;38.948;2023-10-31T07:31:21;35.40;;;23.02;;
64832;SDS011;51290;45.060;38.948;2023-10-31T07:33:47;36.58;;;23.85;;
64832;SDS011;51290;45.060;38.948;2023-10-31T07:36:13;39.90;;;25.10;;
64832;SDS011;51290;45.060;38.948;2023-10-31T07:38:39;38.85;;;23.65;;
64832;SDS011;51290;45.060;38.948;2023-10-31T07:41:05;46.47;;;23.95;;
64832;SDS011;51290;45.060;38.948;2023-10-31T07:43:31;37.58;;;24.58;;
64832;SDS011;51290;45.060;38.948;2023-10-31T07:45:57;37.47;;;25.23;;
64832;SDS011;51290;45.060;38.948;2023-10-31T07:48:23;34.28;;;25.20;;
64832;SDS011;51290;45.060;38.948;2023-10-31T07:50:49;33.15;;;25.25;;
64832;SDS011;51290;45.060;38.948;2023-10-31T07:53:15;38.10;;;26.45;;
64832;SDS011;51290;45.060;38.948;2023-10-31T07:55:40;37.47;;;27.23;;
64832;SDS011;51290;45.060;38.948;2023-10-31T07:58:06;46.00;;;28.58;;
64832;SDS011;51290;45.060;38.948;2023-10-31T08:00:34;46.85;;;29.65;;
64832;SDS011;51290;45.060;38.948;2023-10-31T08:03:01;42.72;;;30.00;;
64832;SDS011;51290;45.060;38.948;2023-10-31T08:05:27;42.25;;;28.48;;
64832;SDS011;51290;45.060;38.948;2023-10-31T08:07:53;45.33;;;29.00;;
64832;SDS011;51290;45.060;38.948;2023-10-31T08:10:19;40.50;;;27.40;;
64832;SDS011;51290;45.060;38.948;2023-10-31T08:12:45;43.92;;;29.48;;
64832;SDS011;51290;45.060;38.948;2023-10-31T08:15:11;44.25;;;29.33;;
64832;SDS011;51290;45.060;38.948;2023-10-31T08:17:39;40.17;;;27.60;;
64832;SDS011;51290;45.060;38.948;2023-10-31T08:20:05;44.83;;;30.40;;
64832;SDS011;51290;45.060;38.948;2023-10-31T08:22:31;40.78;;;29.60;;
64832;SDS011;51290;45.060;38.948;2023-10-31T08:24:57;40.90;;;28.10;;
64832;SDS011;51290;45.060;38.948;2023-10-31T08:27:24;46.65;;;28.38;;
64832;SDS011;51290;45.060;38.948;2023-10-31T08:29:50;48.17;;;28.85;;
64832;SDS011;51290;45.060;38.948;2023-10-31T08:32:16;44.85;;;28.65;;
64832;SDS011;51290;45.060;38.948;2023-10-31T08:34:42;44.05;;;26.67;;
64832;SDS011;51290;45.060;38.948;2023-10-31T08:37:08;38.70;;;25.90;;
64832;SDS011;51290;45.060;38.948;2023-10-31T08:39:34;40.92;;;24.70;;
64832;SDS011;51290;45.060;38.948;2023-10-31T08:42:00;39.58;;;24.00;;
64832;SDS011;51290;45.060;38.948;2023-10-31T08:44:26;36.55;;;21.67;;
64832;SDS011;51290;45.060;38.948;2023-10-31T08:46:52;35.85;;;23.48;;
64832;SDS011;51290;45.060;38.948;2023-10-31T08:49:18;36.42;;;22.35;;
64832;SDS011;51290;45.060;38.948;2023-10-31T08:51:44;40.50;;;23.48;;
64832;SDS011;51290;45.060;38.948;2023-10-31T08:54:10;36.92;;;25.23;;
64832;SDS011;51290;45.060;38.948;2023-10-31T08:56:36;36.58;;;23.92;;
64832;SDS011;51290;45.060;38.948;2023-10-31T08:59:02;33.10;;;24.20;;
64832;SDS011;51290;45.060;38.948;2023-10-31T09:01:29;36.97;;;23.00;;
64832;SDS011;51290;45.060;38.948;2023-10-31T09:03:55;42.53;;;22.45;;
64832;SDS011;51290;45.060;38.948;2023-10-31T09:06:21;40.42;;;23.80;;
64832;SDS011;51290;45.060;38.948;2023-10-31T09:08:47;43.13;;;22.30;;
64832;SDS011;51290;45.060;38.948;2023-10-31T09:11:13;34.72;;;22.05;;
64832;SDS011;51290;45.060;38.948;2023-10-31T09:13:38;40.92;;;23.05;;
64832;SDS011;51290;45.060;38.948;2023-10-31T09:16:04;46.30;;;22.83;;
64832;SDS011;51290;45.060;38.948;2023-10-31T09:18:31;33.97;;;21.63;;
64832;SDS011;51290;45.060;38.948;2023-10-31T09:20:57;34.90;;;20.35;;
64832;SDS011;51290;45.060;38.948;2023-10-31T09:23:23;31.90;;;18.85;;
64832;SDS011;51290;45.060;38.948;2023-10-31T09:25:49;46.80;;;20.50;;
64832;SDS011;51290;45.060;38.948;2023-10-31T09:28:17;48.33;;;21.48;;
64832;SDS011;51290;45.060;38.948;2023-10-31T09:30:43;35.00;;;19.63;;
64832;SDS011;51290;45.060;38.948;2023-10-31T09:33:09;42.45;;;19.67;;
64832;SDS011;51290;45.060;38.948;2023-10-31T09:35:35;33.65;;;19.05;;
64832;SDS011;51290;45.060;38.948;2023-10-31T09:38:01;44.38;;;20.77;;
64832;SDS011;51290;45.060;38.948;2023-10-31T09:40:27;35.25;;;18.80;;
64832;SDS011;51290;45.060;38.948;2023-10-31T09:42:53;28.92;;;16.63;;
64832;SDS011;51290;45.060;38.948;2023-10-31T09:45:19;31.70;;;19.58;;
64832;SDS011;51290;45.060;38.948;2023-10-31T09:47:45;45.65;;;24.75;;
64832;SDS011;51290;45.060;38.948;2023-10-31T09:50:11;36.30;;;18.02;;
64832;SDS011;51290;45.060;38.948;2023-10-31T09:52:37;29.77;;;17.58;;
64832;SDS011;51290;45.060;38.948;2023-10-31T09:55:04;24.85;;;16.55;;
64832;SDS011;51290;45.060;38.948;2023-10-31T09:57:31;32.97;;;17.63;;
64832;SDS011;51290;45.060;38.948;2023-10-31T09:59:57;34.47;;;18.60;;
64832;SDS011;51290;45.060;38.948;2023-10-31T10:02:24;40.83;;;20.90;;
64832;SDS011;51290;45.060;38.948;2023-10-31T10:04:50;32.80;;;20.25;;
64832;SDS011;51290;45.060;38.948;2023-10-31T10:07:17;33.70;;;20.50;;
64832;SDS011;51290;45.060;38.948;2023-10-31T10:09:44;30.85;;;19.48;;
64832;SDS011;51290;45.060;38.948;2023-10-31T10:12:14;37.83;;;21.23;;
64832;SDS011;51290;45.060;38.948;2023-10-31T10:14:42;33.33;;;19.65;;
64832;SDS011;51290;45.060;38.948;2023-10-31T10:17:17;30.63;;;19.88;;
64832;SDS011;51290;45.060;38.948;2023-10-31T10:19:46;33.78;;;20.83;;
64832;SDS011;51290;45.060;38.948;2023-10-31T10:22:12;33.17;;;20.10;;
64832;SDS011;51290;45.060;38.948;2023-10-31T10:24:40;32.35;;;19.73;;
64832;SDS011;51290;45.060;38.948;2023-10-31T10:27:10;36.67;;;21.90;;
64832;SDS011;51290;45.060;38.948;2023-10-31T10:29:37;34.13;;;22.25;;
64832;SDS011;51290;45.060;38.948;2023-10-31T10:32:06;39.10;;;24.08;;
64832;SDS011;51290;45.060;38.948;2023-10-31T10:34:34;35.47;;;24.15;;
64832;SDS011;51290;45.060;38.948;2023-10-31T10:37:01;31.35;;;22.63;;
64832;SDS011;51290;45.060;38.948;2023-10-31T10:39:28;30.58;;;23.80;;
64832;SDS011;51290;45.060;38.948;2023-10-31T10:41:57;34.13;;;23.55;;
64832;SDS011;51290;45.060;38.948;2023-10-31T10:44:32;27.70;;;21.50;;
64832;SDS011;51290;45.060;38.948;2023-10-31T10:47:03;27.83;;;20.95;;
64832;SDS011;51290;45.060;38.948;2023-10-31T10:49:34;25.45;;;18.50;;
64832;SDS011;51290;45.060;38.948;2023-10-31T10:52:11;27.95;;;18.13;;
64832;SDS011;51290;45.060;38.948;2023-10-31T10:55:00;27.02;;;18.88;;
64832;SDS011;51290;45.060;38.948;2023-10-31T11:00:01;28.30;;;19.98;;
64832;SDS011;51290;45.060;38.948;2023-10-31T11:02:29;28.85;;;20.20;;
64832;SDS011;51290;45.060;38.948;2023-10-31T11:04:56;24.08;;;17.15;;
64832;SDS011;51290;45.060;38.948;2023-10-31T11:07:24;26.73;;;15.95;;
64832;SDS011;51290;45.060;38.948;2023-10-31T11:09:53;21.10;;;15.57;;
64832;SDS011;51290;45.060;38.948;2023-10-31T11:12:22;27.13;;;16.52;;
64832;SDS011;51290;45.060;38.948;2023-10-31T11:14:49;20.42;;;12.27;;
64832;SDS011;51290;45.060;38.948;2023-10-31T11:17:23;19.55;;;13.55;;
64832;SDS011;51290;45.060;38.948;2023-10-31T11:19:52;24.27;;;13.00;;
64832;SDS011;51290;45.060;38.948;2023-10-31T11:22:19;24.90;;;12.30;;
64832;SDS011;51290;45.060;38.948;2023-10-31T11:24:45;19.30;;;11.65;;
64832;SDS011;51290;45.060;38.948;2023-10-31T11:27:12;17.83;;;10.93;;
64832;SDS011;51290;45.060;38.948;2023-10-31T11:29:38;15.38;;;10.48;;
64832;SDS011;51290;45.060;38.948;2023-10-31T11:32:07;18.05;;;11.25;;
64832;SDS011;51290;45.060;38.948;2023-10-31T11:34:34;22.48;;;13.25;;
64832;SDS011;51290;45.060;38.948;2023-10-31T11:42:49;25.92;;;12.60;;
64832;SDS011;51290;45.060;38.948;2023-10-31T11:45:26;23.98;;;11.60;;
64832;SDS011;51290;45.060;38.948;2023-10-31T11:48:00;22.17;;;11.85;;
64832;SDS011;51290;45.060;38.948;2023-10-31T11:50:27;24.15;;;11.98;;
64832;SDS011;51290;45.060;38.948;2023-10-31T11:52:59;20.10;;;11.55;;
64832;SDS011;51290;45.060;38.948;2023-10-31T11:55:27;20.33;;;13.68;;
64832;SDS011;51290;45.060;38.948;2023-10-31T11:57:54;18.42;;;10.30;;
64832;SDS011;51290;45.060;38.948;2023-10-31T12:00:20;15.73;;;9.57;;
64832;SDS011;51290;45.060;38.948;2023-10-31T12:03:00;15.48;;;9.57;;
64832;SDS011;51290;45.060;38.948;2023-10-31T12:05:27;16.55;;;9.48;;
64832;SDS011;51290;45.060;38.948;2023-10-31T12:07:53;13.15;;;8.60;;
64832;SDS011;51290;45.060;38.948;2023-10-31T12:10:22;13.85;;;9.27;;
64832;SDS011;51290;45.060;38.948;2023-10-31T12:12:58;16.35;;;9.13;;
64832;SDS011;51290;45.060;38.948;2023-10-31T12:15:24;16.02;;;9.48;;
64832;SDS011;51290;45.060;38.948;2023-10-31T12:17:50;15.00;;;9.13;;
64832;SDS011;51290;45.060;38.948;2023-10-31T12:20:16;16.25;;;8.90;;
64832;SDS011;51290;45.060;38.948;2023-10-31T12:22:43;14.57;;;7.63;;
64832;SDS011;51290;45.060;38.948;2023-10-31T12:25:10;17.50;;;8.30;;
64832;SDS011;51290;45.060;38.948;2023-10-31T12:30:16;14.35;;;7.65;;
64832;SDS011;51290;45.060;38.948;2023-10-31T12:32:43;15.20;;;7.68;;
64832;SDS011;51290;45.060;38.948;2023-10-31T12:35:13;14.15;;;7.15;;
64832;SDS011;51290;45.060;38.948;2023-10-31T12:37:48;11.07;;;6.90;;
64832;SDS011;51290;45.060;38.948;2023-10-31T12:40:18;16.35;;;7.20;;
64832;SDS011;51290;45.060;38.948;2023-10-31T12:42:46;12.18;;;7.18;;
64832;SDS011;51290;45.060;38.948;2023-10-31T12:45:14;14.50;;;7.47;;
64832;SDS011;51290;45.060;38.948;2023-10-31T12:47:41;16.10;;;7.60;;
64832;SDS011;51290;45.060;38.948;2023-10-31T12:50:08;17.02;;;7.32;;
64832;SDS011;51290;45.060;38.948;2023-10-31T12:52:50;17.60;;;8.18;;
64832;SDS011;51290;45.060;38.948;2023-10-31T12:55:26;24.58;;;8.43;;
64832;SDS011;51290;45.060;38.948;2023-10-31T12:57:56;20.50;;;8.68;;
64832;SDS011;51290;45.060;38.948;2023-10-31T13:00:29;23.55;;;9.80;;
64832;SDS011;51290;45.060;38.948;2023-10-31T13:03:00;14.32;;;8.63;;
64832;SDS011;51290;45.060;38.948;2023-10-31T13:05:26;22.58;;;9.00;;
64832;SDS011;51290;45.060;38.948;2023-10-31T13:07:54;22.00;;;9.00;;
64832;SDS011;51290;45.060;38.948;2023-10-31T13:10:22;16.55;;;8.18;;
64832;SDS011;51290;45.060;38.948;2023-10-31T13:12:49;25.10;;;8.63;;
64832;SDS011;51290;45.060;38.948;2023-10-31T13:15:16;15.75;;;8.88;;
64832;SDS011;51290;45.060;38.948;2023-10-31T13:17:43;18.98;;;9.18;;
64832;SDS011;51290;45.060;38.948;2023-10-31T13:20:10;19.17;;;9.43;;
64832;SDS011;51290;45.060;38.948;2023-10-31T13:22:38;21.95;;;9.30;;
64832;SDS011;51290;45.060;38.948;2023-10-31T13:25:05;17.13;;;9.13;;
64832;SDS011;51290;45.060;38.948;2023-10-31T13:27:36;22.05;;;9.38;;
64832;SDS011;51290;45.060;38.948;2023-10-31T13:30:03;20.55;;;9.43;;
64832;SDS011;51290;45.060;38.948;2023-10-31T13:32:30;22.63;;;9.85;;
64832;SDS011;51290;45.060;38.948;2023-10-31T13:34:57;24.02;;;8.73;;
64832;SDS011;51290;45.060;38.948;2023-10-31T13:37:23;28.40;;;9.52;;
64832;SDS011;51290;45.060;38.948;2023-10-31T13:39:49;29.17;;;9.77;;
64832;SDS011;51290;45.060;38.948;2023-10-31T13:42:16;17.63;;;9.45;;
64832;SDS011;51290;45.060;38.948;2023-10-31T13:44:44;18.02;;;9.52;;
64832;SDS011;51290;45.060;38.948;2023-10-31T13:47:10;17.73;;;9.25;;
64832;SDS011;51290;45.060;38.948;2023-10-31T13:49:36;22.40;;;9.20;;
64832;SDS011;51290;45.060;38.948;2023-10-31T13:52:03;21.42;;;8.68;;
64832;SDS011;51290;45.060;38.948;2023-10-31T13:54:30;17.30;;;9.05;;
64832;SDS011;51290;45.060;38.948;2023-10-31T13:56:56;16.60;;;8.68;;
64832;SDS011;51290;45.060;38.948;2023-10-31T13:59:23;13.43;;;7.95;;
64832;SDS011;51290;45.060;38.948;2023-10-31T14:01:49;17.75;;;8.57;;
64832;SDS011;51290;45.060;38.948;2023-10-31T14:04:15;18.42;;;8.32;;
64832;SDS011;51290;45.060;38.948;2023-10-31T14:06:42;13.48;;;7.93;;
64832;SDS011;51290;45.060;38.948;2023-10-31T14:09:09;18.98;;;8.50;;
64832;SDS011;51290;45.060;38.948;2023-10-31T14:11:37;13.48;;;7.47;;
64832;SDS011;51290;45.060;38.948;2023-10-31T14:14:04;14.77;;;7.55;;
64832;SDS011;51290;45.060;38.948;2023-10-31T14:16:39;13.95;;;7.63;;
64832;SDS011;51290;45.060;38.948;2023-10-31T14:19:05;12.48;;;8.15;;
64832;SDS011;51290;45.060;38.948;2023-10-31T14:21:34;16.13;;;7.45;;